Main page
METAR-TAF:

METAR-TAF

Airports :

Kingston/Norman Rogers Airport

Kingston, Ontario, Canada

latitude: 44-13N, longitude: 076-36W, elevation: 305 ft

Current weather observation

The report was made 2 hours and 15 minutes ago, at 04:00 UTC
Wind 14 mph from the West/Southwest
Temperature 32°F
Humidity 100%
Pressure 29.32 in. Hg
Visibility: 3 miles
Broken clouds at a height of 800 ft
Overcast at a height of 1600 ft
light snow, mist

METAR: CYGK 170400Z 25012KT 3SM -SN BR BKN008 OVC016 00/M00 A2932 RMK SF6SC2 LAST STFD OBS/NXT 171100Z SLP934

Time: 01:15 (06:15 UTC)

Forecast

The report was made 4 hours and 37 minutes ago, at 01:38 UTC
Forecast valid from 17 at 02 UTC to 17 at 04 UTC
Wind 14 mph from the West with gusts up to 25 mph
Visibility: 2 miles
Overcast at a height of 500 ft
light snow, mist
Temporary
from 17 at 02 UTC to 17 at 04 UTC
Visibility: 6 miles
Overcast at a height of 1000 ft
mist

TAF: CYGK 170138Z 1702/1704 26012G22KT 2SM -SN BR OVC005 TEMPO 1702/1704 6SM BR OVC010 RMK NXT FCST WILL BE ISSUED AT 171245Z

Weather observations and forecasts of more than 4000 airports (METAR and TAF reports).

The available stations are represented by yellow and red dots on the map.

Hover mouse over dot to see the name of the station.

Then click to see weather observations and forecasts.

To change the map : click on the green buttons with a black cross to zoom in, on the green button with a dash to zoom out, or on the green arrows for adjacent maps.


METAR-TAF: